createdAt,value
2022-10-16T00:01:53.395Z,13.30
2022-10-16T00:04:22.406Z,12.00
2022-10-16T00:06:52.503Z,12.70
2022-10-16T00:09:21.633Z,13.00
2022-10-16T00:11:51.047Z,15.90
2022-10-16T00:14:20.863Z,14.90
2022-10-16T00:16:50.026Z,15.80
2022-10-16T00:19:18.933Z,17.00
2022-10-16T00:21:48.318Z,13.70
2022-10-16T00:24:17.527Z,10.10
2022-10-16T00:26:51.214Z,12.40
2022-10-16T00:29:20.221Z,17.60
2022-10-16T00:31:51.161Z,17.30
2022-10-16T00:34:20.756Z,14.00
2022-10-16T00:36:51.633Z,12.60
2022-10-16T00:39:21.297Z,15.10
2022-10-16T00:41:50.700Z,17.00
2022-10-16T00:44:47.313Z,14.80
2022-10-16T00:47:28.074Z,14.20
2022-10-16T00:50:09.390Z,13.10
2022-10-16T00:52:43.631Z,14.30
2022-10-16T00:55:14.398Z,12.10
2022-10-16T00:57:45.668Z,11.80
2022-10-16T01:00:19.156Z,13.60
2022-10-16T01:02:59.827Z,12.20
2022-10-16T01:05:48.690Z,11.90
2022-10-16T01:08:29.351Z,12.50
2022-10-16T01:11:11.500Z,11.80
2022-10-16T01:13:48.078Z,10.40
2022-10-16T01:16:34.309Z,11.20
2022-10-16T01:19:33.793Z,9.70
2022-10-16T01:22:05.704Z,12.60
2022-10-16T01:24:51.841Z,10.20
2022-10-16T01:27:29.749Z,8.10
2022-10-16T01:30:36.956Z,10.10
2022-10-16T01:33:12.677Z,14.90
2022-10-16T01:35:54.099Z,11.50
2022-10-16T01:38:32.832Z,11.70
2022-10-16T01:41:18.449Z,12.30
2022-10-16T01:43:59.118Z,13.00
2022-10-16T01:46:32.553Z,12.80
2022-10-16T01:49:04.898Z,12.30
2022-10-16T01:51:36.453Z,13.70
2022-10-16T01:54:09.908Z,15.30
2022-10-16T01:56:41.105Z,13.30
2022-10-16T01:59:19.699Z,13.80
2022-10-16T02:01:56.226Z,13.80
2022-10-16T02:04:43.119Z,12.20
2022-10-16T02:07:14.275Z,12.10
2022-10-16T02:09:46.189Z,11.40
2022-10-16T02:12:32.413Z,11.30
2022-10-16T02:15:03.160Z,9.40
2022-10-16T02:17:33.476Z,10.90
2022-10-16T02:22:38.095Z,9.40
2022-10-16T02:25:24.530Z,11.30
2022-10-16T02:28:25.117Z,11.00
2022-10-16T02:31:07.041Z,9.40
2022-10-16T02:33:40.685Z,9.60
2022-10-16T02:36:16.101Z,13.70
2022-10-16T02:38:47.940Z,10.70
2022-10-16T02:41:18.137Z,9.30
2022-10-16T02:43:49.687Z,12.50
2022-10-16T02:46:22.911Z,12.10
2022-10-16T02:48:53.729Z,13.70
2022-10-16T02:51:26.656Z,11.10
2022-10-16T02:53:59.012Z,10.70
2022-10-16T02:56:28.729Z,11.70
2022-10-16T02:59:00.539Z,11.90
2022-10-16T03:01:33.975Z,11.20
2022-10-16T03:04:06.013Z,11.40
2022-10-16T03:06:37.834Z,10.40
2022-10-16T03:09:08.294Z,10.20
2022-10-16T03:11:37.833Z,8.90
2022-10-16T03:14:09.586Z,12.70
2022-10-16T03:16:41.014Z,11.10
2022-10-16T03:19:10.619Z,11.40
2022-10-16T03:21:40.225Z,9.50
2022-10-16T03:24:11.535Z,10.40
2022-10-16T03:26:43.244Z,9.90
2022-10-16T03:29:14.690Z,11.50
2022-10-16T03:31:46.774Z,11.30
2022-10-16T03:34:16.479Z,11.60
2022-10-16T03:36:48.676Z,10.40
2022-10-16T03:39:20.621Z,10.60
2022-10-16T03:41:50.086Z,8.20
2022-10-16T03:44:20.499Z,9.30
2022-10-16T03:46:51.205Z,9.00
2022-10-16T03:49:20.597Z,9.30
2022-10-16T03:51:50.894Z,8.20
2022-10-16T03:54:21.647Z,10.00
2022-10-16T03:56:50.898Z,11.30
2022-10-16T04:01:59.823Z,9.30
2022-10-16T04:04:29.547Z,7.80
2022-10-16T04:06:58.324Z,7.50
2022-10-16T04:09:27.933Z,10.00
2022-10-16T04:11:57.255Z,10.30
2022-10-16T04:14:26.248Z,11.60
2022-10-16T04:16:54.913Z,9.90
2022-10-16T04:19:24.156Z,8.70
2022-10-16T04:21:52.786Z,7.70
2022-10-16T04:24:21.529Z,8.30
2022-10-16T04:26:50.747Z,7.80
2022-10-16T04:29:19.675Z,9.60
2022-10-16T04:31:48.346Z,9.80
2022-10-16T04:34:16.969Z,8.80
2022-10-16T04:36:45.452Z,9.50
2022-10-16T04:39:14.189Z,10.00
2022-10-16T04:41:42.838Z,9.50
2022-10-16T04:44:15.037Z,9.90
2022-10-16T04:46:50.520Z,7.30
2022-10-16T04:49:21.861Z,10.00
2022-10-16T04:51:50.583Z,10.20
2022-10-16T04:54:19.181Z,12.40
2022-10-16T04:56:52.237Z,11.60
2022-10-16T04:59:22.237Z,10.40
2022-10-16T05:01:55.224Z,10.30
2022-10-16T05:04:26.768Z,10.00
2022-10-16T05:06:55.739Z,10.30
2022-10-16T05:09:24.309Z,12.80
2022-10-16T05:11:52.817Z,14.20
2022-10-16T05:14:21.360Z,14.10
2022-10-16T05:16:50.393Z,15.50
2022-10-16T05:19:27.662Z,12.00
2022-10-16T05:21:57.514Z,12.50
2022-10-16T05:24:26.375Z,12.60
2022-10-16T05:26:55.248Z,11.00
2022-10-16T05:29:23.804Z,10.80
2022-10-16T05:31:54.389Z,12.50
2022-10-16T05:34:22.987Z,13.80
2022-10-16T05:36:51.632Z,17.60
2022-10-16T05:39:20.372Z,20.90
2022-10-16T05:41:50.959Z,21.40
2022-10-16T05:46:48.640Z,21.50
2022-10-16T05:49:17.379Z,19.60
2022-10-16T05:51:45.855Z,28.80
2022-10-16T05:54:14.477Z,29.70
2022-10-16T05:56:43.212Z,28.30
2022-10-16T05:59:11.631Z,29.20
2022-10-16T06:01:40.060Z,22.90
2022-10-16T06:06:40.107Z,29.40
2022-10-16T06:09:08.533Z,25.20
2022-10-16T06:11:37.936Z,25.10
2022-10-16T06:14:08.179Z,20.80
2022-10-16T06:19:10.461Z,18.70
2022-10-16T06:21:39.098Z,17.40
2022-10-16T06:24:07.628Z,15.80
2022-10-16T06:26:36.297Z,18.40
2022-10-16T06:29:04.960Z,18.50
2022-10-16T06:31:34.715Z,17.50
2022-10-16T06:34:04.671Z,16.90
2022-10-16T06:36:33.436Z,15.40
2022-10-16T06:39:02.066Z,13.70
2022-10-16T06:41:30.884Z,16.50
2022-10-16T06:44:07.067Z,15.30
2022-10-16T06:46:36.171Z,15.90
2022-10-16T06:49:05.553Z,17.20
2022-10-16T06:51:37.952Z,15.50
2022-10-16T06:54:09.753Z,12.00
2022-10-16T06:56:38.869Z,13.30
2022-10-16T06:59:07.395Z,13.40
2022-10-16T07:01:36.424Z,19.00
2022-10-16T07:04:04.946Z,12.90
2022-10-16T07:06:35.246Z,11.90
2022-10-16T07:09:06.745Z,8.40
2022-10-16T07:11:36.123Z,21.10
2022-10-16T07:14:05.485Z,9.60
2022-10-16T07:16:34.792Z,7.90
2022-10-16T07:19:04.097Z,7.40
2022-10-16T07:21:38.118Z,8.00
2022-10-16T07:24:08.996Z,13.20
2022-10-16T07:26:40.335Z,12.10
2022-10-16T07:29:14.756Z,7.10
2022-10-16T07:31:44.232Z,7.50
2022-10-16T07:34:14.837Z,8.00
2022-10-16T07:36:43.878Z,7.90
2022-10-16T07:39:12.624Z,7.10
2022-10-16T07:41:41.611Z,8.30
2022-10-16T07:44:10.113Z,11.50
2022-10-16T07:46:38.498Z,6.90
2022-10-16T07:49:06.908Z,6.50
2022-10-16T07:51:35.649Z,6.70
2022-10-16T07:54:04.217Z,6.30
2022-10-16T07:56:34.134Z,6.10
2022-10-16T07:59:02.514Z,6.90
2022-10-16T08:01:31.102Z,6.50
2022-10-16T08:03:59.656Z,6.10
2022-10-16T08:06:28.304Z,6.20
2022-10-16T08:08:57.691Z,6.30
2022-10-16T08:11:26.072Z,6.10
2022-10-16T08:13:54.536Z,6.10
2022-10-16T08:16:23.530Z,6.00
2022-10-16T08:18:52.705Z,5.90
2022-10-16T08:21:24.496Z,5.50
2022-10-16T08:23:57.238Z,5.60
2022-10-16T08:26:28.595Z,5.90
2022-10-16T08:28:57.875Z,6.30
2022-10-16T08:31:28.455Z,6.80
2022-10-16T08:33:56.975Z,6.10
2022-10-16T08:36:25.489Z,6.00
2022-10-16T08:38:55.656Z,5.90
2022-10-16T08:41:33.159Z,5.90
2022-10-16T08:44:19.785Z,5.90
2022-10-16T08:46:57.207Z,6.40
2022-10-16T08:49:26.222Z,7.00
2022-10-16T08:51:57.332Z,6.00
2022-10-16T08:54:45.094Z,6.20
2022-10-16T08:57:21.478Z,6.10
2022-10-16T08:59:55.967Z,6.10
2022-10-16T09:02:38.995Z,6.40
2022-10-16T09:05:24.469Z,5.70
2022-10-16T09:08:13.105Z,5.70
2022-10-16T09:10:47.693Z,6.60
2022-10-16T09:13:58.740Z,6.60
2022-10-16T09:16:42.538Z,6.10
2022-10-16T09:19:39.576Z,5.30
2022-10-16T09:22:30.020Z,6.10
2022-10-16T09:25:12.130Z,6.60
2022-10-16T09:27:40.809Z,6.90
2022-10-16T09:30:21.036Z,5.60
2022-10-16T09:32:54.029Z,5.10
2022-10-16T09:35:29.066Z,5.60
2022-10-16T09:37:57.500Z,5.40
2022-10-16T09:40:38.184Z,5.10
2022-10-16T09:43:33.736Z,5.30
2022-10-16T09:46:03.794Z,5.80
2022-10-16T09:48:40.691Z,5.90
2022-10-16T09:51:21.538Z,5.90
2022-10-16T09:53:50.700Z,5.80
2022-10-16T09:56:27.476Z,5.40
2022-10-16T09:59:01.704Z,5.60
2022-10-16T10:01:48.528Z,5.90
2022-10-16T10:04:27.283Z,7.30
2022-10-16T10:06:59.517Z,6.10
2022-10-16T10:09:34.551Z,5.80
2022-10-16T10:12:04.715Z,6.20
2022-10-16T10:14:38.748Z,6.70
2022-10-16T10:17:07.327Z,5.80
2022-10-16T10:19:44.458Z,6.50
2022-10-16T10:22:32.852Z,7.60
2022-10-16T10:25:10.352Z,6.70
2022-10-16T10:27:52.443Z,8.40
2022-10-16T10:30:26.760Z,6.20
2022-10-16T10:33:29.451Z,7.00
2022-10-16T10:36:06.035Z,6.20
2022-10-16T10:39:10.378Z,6.50
2022-10-16T10:41:42.121Z,7.10
2022-10-16T10:44:19.694Z,7.10
2022-10-16T10:47:09.881Z,6.40
2022-10-16T10:49:50.243Z,7.40
2022-10-16T10:52:53.251Z,7.90
2022-10-16T10:55:49.463Z,6.60
2022-10-16T10:58:49.287Z,6.90
2022-10-16T11:01:28.345Z,7.50
2022-10-16T11:04:12.143Z,6.80
2022-10-16T11:07:03.346Z,5.60
2022-10-16T11:09:48.243Z,5.10
2022-10-16T11:12:28.579Z,5.30
2022-10-16T11:15:07.198Z,4.00
2022-10-16T11:17:40.972Z,5.70
2022-10-16T11:20:17.777Z,4.90
2022-10-16T11:22:49.588Z,5.10
2022-10-16T11:25:18.006Z,5.10
2022-10-16T11:27:50.503Z,4.30
2022-10-16T11:30:20.940Z,5.40
2022-10-16T11:33:14.312Z,5.10
2022-10-16T11:35:48.798Z,4.10
2022-10-16T11:38:35.497Z,4.00
2022-10-16T11:41:29.045Z,4.70
2022-10-16T11:44:22.147Z,4.40
2022-10-16T11:47:39.796Z,5.00
2022-10-16T11:50:23.101Z,4.30
2022-10-16T11:53:15.029Z,4.80
2022-10-16T11:55:46.974Z,4.50
2022-10-16T11:58:24.388Z,3.80
2022-10-16T12:01:05.566Z,4.00
2022-10-16T12:04:11.418Z,4.30
2022-10-16T12:06:49.663Z,3.00
2022-10-16T12:09:37.965Z,2.90
2022-10-16T12:12:24.843Z,3.20
2022-10-16T12:15:29.885Z,3.50
2022-10-16T12:18:03.729Z,4.50
2022-10-16T12:20:37.544Z,3.20
2022-10-16T12:23:07.670Z,3.60
2022-10-16T12:25:40.533Z,3.50
2022-10-16T12:28:30.257Z,3.70
2022-10-16T12:31:05.069Z,4.00
2022-10-16T12:33:39.467Z,4.10
2022-10-16T12:36:29.865Z,4.30
2022-10-16T12:38:59.262Z,4.20
2022-10-16T12:41:33.270Z,4.20
2022-10-16T12:44:02.942Z,3.90
2022-10-16T12:46:31.383Z,3.30
2022-10-16T12:49:23.640Z,3.10
2022-10-16T12:51:52.829Z,3.60
2022-10-16T12:54:31.576Z,3.90
2022-10-16T12:57:10.036Z,3.50
2022-10-16T13:00:04.979Z,4.50
2022-10-16T13:03:01.411Z,4.10
2022-10-16T13:05:51.353Z,4.20
2022-10-16T13:08:41.726Z,4.40
2022-10-16T13:11:10.136Z,4.30
2022-10-16T13:13:47.323Z,4.40
2022-10-16T13:16:27.092Z,4.60
2022-10-16T13:19:21.459Z,4.70
2022-10-16T13:22:26.387Z,4.30
2022-10-16T13:25:08.984Z,4.60
2022-10-16T13:27:47.453Z,3.90
2022-10-16T13:30:24.637Z,4.30
2022-10-16T13:33:03.030Z,4.40
2022-10-16T13:35:34.338Z,5.60
2022-10-16T13:38:06.826Z,4.60
2022-10-16T13:40:36.024Z,4.20
2022-10-16T13:43:04.885Z,4.70
2022-10-16T13:45:33.315Z,4.40
2022-10-16T13:48:07.233Z,4.20
2022-10-16T13:50:35.617Z,4.40
2022-10-16T13:53:06.103Z,5.00
2022-10-16T13:55:35.096Z,4.40
2022-10-16T13:58:14.615Z,5.40
2022-10-16T14:00:55.945Z,4.60
2022-10-16T14:03:25.715Z,4.40
2022-10-16T14:05:57.883Z,4.20
2022-10-16T14:08:28.229Z,5.40
2022-10-16T14:11:01.542Z,4.70
2022-10-16T14:13:33.071Z,4.70
2022-10-16T14:16:08.076Z,4.40
2022-10-16T14:18:39.342Z,5.50
2022-10-16T14:21:14.184Z,4.80
2022-10-16T14:23:45.603Z,4.70
2022-10-16T14:26:17.665Z,4.30
2022-10-16T14:28:48.937Z,4.10
2022-10-16T14:31:29.471Z,4.90
2022-10-16T14:34:00.322Z,4.80
2022-10-16T14:36:30.755Z,4.70
2022-10-16T14:39:15.880Z,4.70
2022-10-16T14:41:50.506Z,3.90
2022-10-16T14:44:20.443Z,5.40
2022-10-16T14:46:49.238Z,5.30
2022-10-16T14:52:04.223Z,4.70
2022-10-16T14:54:33.528Z,4.90
2022-10-16T14:57:02.576Z,5.80
2022-10-16T14:59:42.276Z,6.30
2022-10-16T15:02:16.921Z,6.40
2022-10-16T15:04:45.750Z,5.40
2022-10-16T15:07:14.180Z,5.90
2022-10-16T15:09:48.033Z,5.30
2022-10-16T15:12:19.744Z,5.30
2022-10-16T15:14:51.397Z,6.90
2022-10-16T15:17:22.206Z,5.30
2022-10-16T15:19:52.362Z,5.10
2022-10-16T15:22:20.835Z,5.60
2022-10-16T15:24:49.169Z,5.70
2022-10-16T15:27:17.616Z,6.00
2022-10-16T15:29:46.174Z,5.50
2022-10-16T15:32:14.504Z,5.40
2022-10-16T15:34:43.851Z,5.50
2022-10-16T15:37:13.253Z,5.70
2022-10-16T15:39:41.644Z,5.80
2022-10-16T15:42:10.126Z,6.50
2022-10-16T15:44:38.651Z,18.70
2022-10-16T15:47:07.118Z,19.70
2022-10-16T15:49:36.584Z,22.80
2022-10-16T15:52:05.122Z,19.80
2022-10-16T15:54:33.706Z,18.30
2022-10-16T15:57:03.457Z,14.90
2022-10-16T15:59:31.941Z,13.80
2022-10-16T16:02:00.530Z,12.40
2022-10-16T16:04:43.411Z,10.40
2022-10-16T16:07:13.394Z,9.10
2022-10-16T16:09:42.138Z,8.80
2022-10-16T16:12:10.666Z,7.60
2022-10-16T16:14:39.031Z,8.70
2022-10-16T16:17:07.583Z,17.00
2022-10-16T16:19:36.166Z,15.20
2022-10-16T16:22:08.161Z,17.60
2022-10-16T16:24:39.311Z,19.70
2022-10-16T16:27:08.100Z,20.90
2022-10-16T16:29:36.890Z,23.10
2022-10-16T16:32:05.326Z,24.20
2022-10-16T16:34:33.698Z,23.30
2022-10-16T16:37:02.118Z,26.80
2022-10-16T16:39:30.671Z,20.80
2022-10-16T16:42:04.012Z,26.10
2022-10-16T16:44:32.404Z,37.60
2022-10-16T16:47:00.834Z,32.20
2022-10-16T16:49:29.196Z,35.20
2022-10-16T16:51:57.576Z,32.30
2022-10-16T16:54:26.231Z,37.90
2022-10-16T16:56:57.501Z,51.10
2022-10-16T16:59:33.789Z,42.10
2022-10-16T17:02:02.628Z,34.00
2022-10-16T17:04:31.228Z,36.50
2022-10-16T17:07:00.681Z,30.90
2022-10-16T17:09:30.306Z,24.90
2022-10-16T17:11:58.683Z,27.60
2022-10-16T17:14:27.017Z,27.10
2022-10-16T17:16:55.518Z,23.60
2022-10-16T17:19:23.901Z,27.70
2022-10-16T17:21:52.985Z,24.70
2022-10-16T17:24:21.758Z,22.30
2022-10-16T17:26:50.332Z,19.50
2022-10-16T17:29:19.226Z,20.10
2022-10-16T17:31:50.165Z,21.30
2022-10-16T17:34:19.234Z,20.70
2022-10-16T17:36:47.968Z,19.60
2022-10-16T17:39:20.486Z,20.40
2022-10-16T17:41:49.311Z,15.20
2022-10-16T17:44:21.889Z,16.10
2022-10-16T17:46:52.901Z,16.00
2022-10-16T17:49:22.095Z,18.10
2022-10-16T17:51:58.248Z,17.50
2022-10-16T17:54:32.853Z,18.00
2022-10-16T17:57:01.938Z,19.30
2022-10-16T17:59:31.105Z,20.10
2022-10-16T18:02:00.457Z,26.90
2022-10-16T18:04:29.193Z,35.40
2022-10-16T18:06:57.553Z,37.50
2022-10-16T18:09:25.946Z,28.60
2022-10-16T18:12:05.326Z,23.70
2022-10-16T18:14:34.591Z,24.30
2022-10-16T18:19:33.671Z,27.70
2022-10-16T18:22:07.699Z,23.30
2022-10-16T18:24:37.958Z,26.00
2022-10-16T18:27:09.833Z,24.70
2022-10-16T18:29:38.546Z,23.60
2022-10-16T18:32:08.700Z,21.80
2022-10-16T18:34:42.041Z,20.00
2022-10-16T18:37:12.378Z,17.10
2022-10-16T18:39:42.035Z,15.70
2022-10-16T18:42:13.452Z,14.90
2022-10-16T18:44:43.151Z,14.30
2022-10-16T18:47:13.833Z,15.90
2022-10-16T18:49:44.387Z,14.80
2022-10-16T18:52:12.869Z,12.80
2022-10-16T18:54:41.341Z,13.70
2022-10-16T18:57:09.689Z,17.40
2022-10-16T18:59:40.119Z,16.50
2022-10-16T19:02:13.362Z,17.90
2022-10-16T19:04:41.777Z,17.30
2022-10-16T19:07:10.192Z,17.00
2022-10-16T19:09:38.873Z,12.30
2022-10-16T19:12:08.532Z,15.40
2022-10-16T19:14:37.349Z,17.40
2022-10-16T19:17:05.652Z,14.90
2022-10-16T19:19:34.488Z,14.90
2022-10-16T19:22:14.800Z,17.50
2022-10-16T19:24:46.512Z,12.00
2022-10-16T19:27:14.958Z,17.80
2022-10-16T19:29:43.381Z,16.60
2022-10-16T19:32:11.961Z,19.00
2022-10-16T19:34:40.338Z,16.40
2022-10-16T19:37:11.398Z,16.10
2022-10-16T19:39:39.881Z,16.00
2022-10-16T19:42:08.559Z,14.60
2022-10-16T19:44:37.499Z,15.20
2022-10-16T19:47:06.307Z,13.90
2022-10-16T19:49:36.621Z,14.00
2022-10-16T19:52:05.095Z,14.30
2022-10-16T19:54:35.894Z,16.70
2022-10-16T19:57:04.366Z,14.20
2022-10-16T19:59:32.923Z,13.10
2022-10-16T20:02:01.519Z,15.90
2022-10-16T20:04:30.160Z,15.60
2022-10-16T20:06:58.640Z,17.50
2022-10-16T20:09:27.239Z,20.90
2022-10-16T20:11:55.879Z,20.20
2022-10-16T20:14:24.271Z,18.60
2022-10-16T20:16:53.608Z,19.60
2022-10-16T20:19:22.517Z,22.80
2022-10-16T20:21:52.761Z,23.30
2022-10-16T20:24:21.423Z,22.40
2022-10-16T20:26:50.195Z,21.30
2022-10-16T20:29:18.794Z,21.30
2022-10-16T20:31:51.479Z,23.20
2022-10-16T20:34:19.956Z,20.20
2022-10-16T20:36:51.175Z,18.20
2022-10-16T20:39:20.062Z,21.00
2022-10-16T20:41:48.765Z,22.80
2022-10-16T20:44:17.382Z,26.60
2022-10-16T20:46:45.817Z,26.10
2022-10-16T20:49:28.351Z,22.50
2022-10-16T20:52:02.980Z,26.80
2022-10-16T20:54:32.045Z,22.50
2022-10-16T20:57:00.658Z,21.70
2022-10-16T20:59:29.085Z,20.70
2022-10-16T21:01:57.883Z,19.90
2022-10-16T21:04:26.918Z,22.00
2022-10-16T21:06:55.396Z,20.10
2022-10-16T21:09:25.650Z,25.30
2022-10-16T21:11:54.455Z,24.10
2022-10-16T21:14:23.132Z,21.00
2022-10-16T21:16:51.748Z,22.00
2022-10-16T21:19:20.380Z,18.40
2022-10-16T21:21:48.877Z,17.60
2022-10-16T21:24:18.174Z,14.60
2022-10-16T21:26:46.807Z,14.40
2022-10-16T21:29:15.341Z,15.30
2022-10-16T21:31:44.066Z,16.20
2022-10-16T21:34:12.940Z,16.30
2022-10-16T21:36:42.931Z,15.10
2022-10-16T21:39:14.674Z,15.50
2022-10-16T21:41:45.546Z,14.90
2022-10-16T21:44:14.997Z,18.80
2022-10-16T21:46:45.439Z,17.60
2022-10-16T21:49:18.134Z,18.70
2022-10-16T21:51:49.682Z,17.30
2022-10-16T21:54:21.178Z,18.30
2022-10-16T21:56:50.479Z,18.30
2022-10-16T21:59:19.872Z,15.30
2022-10-16T22:01:48.778Z,15.50
2022-10-16T22:04:17.854Z,20.00
2022-10-16T22:06:47.320Z,18.40
2022-10-16T22:09:16.421Z,16.50
2022-10-16T22:11:45.984Z,14.60
2022-10-16T22:14:17.567Z,18.20
2022-10-16T22:16:47.272Z,16.00
2022-10-16T22:19:18.696Z,18.00
2022-10-16T22:21:51.979Z,16.10
2022-10-16T22:24:20.624Z,15.90
2022-10-16T22:26:50.919Z,18.80
2022-10-16T22:31:52.808Z,15.50
2022-10-16T22:34:21.590Z,18.00
2022-10-16T22:36:51.306Z,19.00
2022-10-16T22:39:20.501Z,15.10
2022-10-16T22:41:50.034Z,12.50
2022-10-16T22:44:19.688Z,14.90
2022-10-16T22:46:48.426Z,16.00
2022-10-16T22:49:20.916Z,16.90
2022-10-16T22:54:24.274Z,11.00
2022-10-16T22:56:54.614Z,13.70
2022-10-16T22:59:24.106Z,15.40
2022-10-16T23:01:54.120Z,15.00
2022-10-16T23:04:23.146Z,13.50
2022-10-16T23:06:52.549Z,16.90
2022-10-16T23:09:23.012Z,12.90
2022-10-16T23:14:22.935Z,17.60
2022-10-16T23:16:54.752Z,17.60
2022-10-16T23:19:24.607Z,16.50
2022-10-16T23:21:54.231Z,16.40
2022-10-16T23:24:23.799Z,18.50
2022-10-16T23:26:53.922Z,12.30
2022-10-16T23:29:24.213Z,14.70
2022-10-16T23:31:55.710Z,14.40
2022-10-16T23:34:27.240Z,15.00
2022-10-16T23:36:58.247Z,14.90
2022-10-16T23:39:28.795Z,14.30
2022-10-16T23:41:59.329Z,16.20
2022-10-16T23:44:28.813Z,15.80
2022-10-16T23:47:00.678Z,16.00
2022-10-16T23:49:30.041Z,16.60
2022-10-16T23:51:59.277Z,14.90
2022-10-16T23:54:29.189Z,16.00
2022-10-16T23:56:58.603Z,16.40
2022-10-16T23:59:27.843Z,15.60
